createdAt,value
2022-09-01T00:00:53.110Z,10.12
2022-09-01T00:02:15.375Z,10.38
2022-09-01T00:03:36.693Z,9.42
2022-09-01T00:04:58.017Z,8.60
2022-09-01T00:06:23.345Z,10.54
2022-09-01T00:07:44.881Z,9.78
2022-09-01T00:09:08.801Z,10.30
2022-09-01T00:10:30.695Z,11.87
2022-09-01T00:11:53.257Z,12.97
2022-09-01T00:13:14.825Z,11.76
2022-09-01T00:14:41.365Z,11.09
2022-09-01T00:16:01.726Z,16.19
2022-09-01T00:17:22.956Z,15.49
2022-09-01T00:18:45.376Z,15.69
2022-09-01T00:20:07.898Z,10.98
2022-09-01T00:21:31.538Z,13.73
2022-09-01T00:22:52.586Z,14.47
2022-09-01T00:24:14.949Z,9.84
2022-09-01T00:25:36.220Z,8.16
2022-09-01T00:26:57.989Z,9.11
2022-09-01T00:28:19.788Z,9.39
2022-09-01T00:29:43.310Z,8.17
2022-09-01T00:31:05.397Z,9.78
2022-09-01T00:32:27.161Z,9.32
2022-09-01T00:33:48.634Z,9.63
2022-09-01T00:35:09.955Z,7.94
2022-09-01T00:36:32.921Z,7.83
2022-09-01T00:37:54.358Z,9.62
2022-09-01T00:39:15.991Z,8.56
2022-09-01T00:40:39.734Z,8.91
2022-09-01T00:43:25.777Z,7.49
2022-09-01T00:44:47.055Z,8.87
2022-09-01T00:46:20.708Z,8.68
2022-09-01T00:47:43.755Z,7.36
2022-09-01T00:49:08.627Z,9.56
2022-09-01T00:50:31.036Z,8.82
2022-09-01T00:51:54.996Z,7.21
2022-09-01T00:53:16.263Z,7.48
2022-09-01T00:54:40.327Z,8.26
2022-09-01T00:56:02.524Z,6.92
2022-09-01T00:57:23.742Z,9.47
2022-09-01T00:58:44.921Z,9.61
2022-09-01T01:01:23.192Z,9.37
2022-09-01T01:02:45.201Z,6.82
2022-09-01T01:04:07.372Z,10.69
2022-09-01T01:05:31.231Z,6.97
2022-09-01T01:06:55.361Z,10.33
2022-09-01T01:08:17.113Z,9.93
2022-09-01T01:09:40.614Z,7.24
2022-09-01T01:12:17.676Z,9.19
2022-09-01T01:13:53.729Z,9.87
2022-09-01T01:15:14.871Z,8.72
2022-09-01T01:16:36.894Z,10.75
2022-09-01T01:17:58.677Z,7.21
2022-09-01T01:19:29.258Z,7.77
2022-09-01T01:22:15.959Z,6.52
2022-09-01T01:23:44.637Z,10.89
2022-09-01T01:25:06.306Z,9.99
2022-09-01T01:26:28.838Z,9.96
2022-09-01T01:27:50.361Z,10.77
2022-09-01T01:29:11.940Z,12.93
2022-09-01T01:30:35.022Z,11.40
2022-09-01T01:31:56.191Z,9.37
2022-09-01T01:34:29.791Z,12.93
2022-09-01T01:35:52.320Z,9.78
2022-09-01T01:37:13.592Z,9.64
2022-09-01T01:38:35.267Z,11.11
2022-09-01T01:39:56.834Z,16.49
2022-09-01T01:41:18.316Z,10.63
2022-09-01T01:42:42.032Z,12.29
2022-09-01T01:44:03.446Z,11.67
2022-09-01T01:45:25.471Z,8.52
2022-09-01T01:46:49.060Z,12.48
2022-09-01T01:48:10.402Z,11.98
2022-09-01T01:49:31.994Z,11.51
2022-09-01T01:50:53.900Z,11.89
2022-09-01T01:52:15.297Z,13.72
2022-09-01T01:53:36.649Z,11.49
2022-09-01T01:55:00.144Z,10.78
2022-09-01T01:56:22.716Z,11.31
2022-09-01T01:57:43.913Z,12.06
2022-09-01T01:59:06.538Z,11.56
2022-09-01T02:00:31.019Z,11.34
2022-09-01T02:01:52.917Z,12.54
2022-09-01T02:03:18.086Z,12.66
2022-09-01T02:04:39.606Z,10.13
2022-09-01T02:06:01.216Z,10.24
2022-09-01T02:07:22.605Z,11.57
2022-09-01T02:08:44.445Z,9.98
2022-09-01T02:10:06.295Z,11.25
2022-09-01T02:11:28.001Z,11.31
2022-09-01T02:12:49.808Z,10.13
2022-09-01T02:14:11.565Z,11.64
2022-09-01T02:15:35.961Z,9.21
2022-09-01T02:16:57.579Z,8.84
2022-09-01T02:18:20.973Z,10.43
2022-09-01T02:19:42.672Z,12.22
2022-09-01T02:21:05.292Z,12.33
2022-09-01T02:22:26.920Z,13.96
2022-09-01T02:23:53.558Z,11.69
2022-09-01T02:25:14.794Z,9.67
2022-09-01T02:26:39.007Z,9.88
2022-09-01T02:28:01.468Z,12.21
2022-09-01T02:29:22.673Z,11.17
2022-09-01T02:30:50.112Z,18.52
2022-09-01T02:32:11.684Z,16.91
2022-09-01T02:33:32.948Z,14.96
2022-09-01T02:34:54.544Z,16.51
2022-09-01T02:36:16.809Z,16.04
2022-09-01T02:37:38.449Z,9.98
2022-09-01T02:38:59.806Z,11.79
2022-09-01T02:40:21.568Z,15.18
2022-09-01T02:41:43.017Z,11.81
2022-09-01T02:43:04.089Z,13.48
2022-09-01T02:44:25.433Z,12.21
2022-09-01T02:45:51.810Z,16.83
2022-09-01T02:47:13.130Z,12.52
2022-09-01T02:48:36.506Z,12.94
2022-09-01T02:51:20.005Z,12.14
2022-09-01T02:54:02.556Z,19.06
2022-09-01T02:55:24.130Z,17.73
2022-09-01T02:56:46.399Z,16.41
2022-09-01T02:58:07.690Z,16.81
2022-09-01T02:59:29.129Z,13.78
2022-09-01T03:00:55.026Z,19.11
2022-09-01T03:02:16.934Z,15.66
2022-09-01T03:03:39.368Z,17.49
2022-09-01T03:05:00.954Z,16.63
2022-09-01T03:07:44.863Z,16.49
2022-09-01T03:09:08.510Z,17.53
2022-09-01T03:10:35.047Z,16.96
2022-09-01T03:11:56.612Z,17.68
2022-09-01T03:13:20.394Z,17.34
2022-09-01T03:14:41.328Z,14.77
2022-09-01T03:16:03.124Z,21.61
2022-09-01T03:17:24.497Z,19.20
2022-09-01T03:18:45.980Z,21.38
2022-09-01T03:20:07.966Z,20.38
2022-09-01T03:21:29.800Z,26.07
2022-09-01T03:22:51.192Z,25.91
2022-09-01T03:24:15.353Z,22.70
2022-09-01T03:25:36.936Z,21.52
2022-09-01T03:26:58.599Z,24.23
2022-09-01T03:28:20.225Z,19.08
2022-09-01T03:29:41.490Z,17.67
2022-09-01T03:31:02.954Z,23.01
2022-09-01T03:32:24.399Z,16.38
2022-09-01T03:33:45.833Z,15.93
2022-09-01T03:35:07.787Z,18.09
2022-09-01T03:36:30.448Z,18.97
2022-09-01T03:37:51.806Z,16.81
2022-09-01T03:39:16.774Z,18.37
2022-09-01T03:40:38.193Z,18.74
2022-09-01T03:41:59.913Z,20.97
2022-09-01T03:43:21.241Z,23.16
2022-09-01T03:44:42.429Z,25.04
2022-09-01T03:46:03.813Z,22.38
2022-09-01T03:47:25.048Z,25.57
2022-09-01T03:48:47.207Z,25.02
2022-09-01T03:51:31.907Z,29.38
2022-09-01T03:52:55.590Z,32.31
2022-09-01T03:54:16.664Z,30.05
2022-09-01T03:55:38.102Z,30.59
2022-09-01T03:56:59.602Z,31.32
2022-09-01T03:58:20.967Z,30.08
2022-09-01T03:59:42.309Z,28.44
2022-09-01T04:01:04.143Z,24.60
2022-09-01T04:02:26.898Z,24.73
2022-09-01T04:03:49.403Z,18.59
2022-09-01T04:05:10.741Z,19.11
2022-09-01T04:06:32.018Z,16.34
2022-09-01T04:07:53.098Z,19.22
2022-09-01T04:09:14.575Z,15.90
2022-09-01T04:10:40.166Z,11.79
2022-09-01T04:12:03.783Z,12.89
2022-09-01T04:13:36.913Z,9.74
2022-09-01T04:14:59.447Z,11.38
2022-09-01T04:16:24.784Z,14.56
2022-09-01T04:17:46.373Z,15.63
2022-09-01T04:19:07.644Z,13.93
2022-09-01T04:20:29.521Z,14.28
2022-09-01T04:23:03.859Z,10.34
2022-09-01T04:24:29.468Z,10.37
2022-09-01T04:25:53.606Z,10.31
2022-09-01T04:27:14.992Z,10.38
2022-09-01T04:28:41.539Z,12.00
2022-09-01T04:30:03.444Z,9.02
2022-09-01T04:31:25.289Z,10.29
2022-09-01T04:32:48.452Z,13.12
2022-09-01T04:34:11.225Z,20.61
2022-09-01T04:35:39.163Z,20.46
2022-09-01T04:37:00.593Z,14.06
2022-09-01T04:38:23.873Z,15.01
2022-09-01T04:39:56.149Z,15.18
2022-09-01T04:41:16.539Z,14.53
2022-09-01T04:42:39.053Z,19.75
2022-09-01T04:44:01.080Z,14.81
2022-09-01T04:45:23.067Z,15.31
2022-09-01T04:46:44.997Z,13.87
2022-09-01T04:48:06.474Z,17.11
2022-09-01T04:49:29.010Z,21.91
2022-09-01T04:50:53.718Z,16.73
2022-09-01T04:52:15.042Z,15.17
2022-09-01T04:53:36.481Z,18.35
2022-09-01T04:54:57.807Z,20.68
2022-09-01T04:56:20.448Z,23.62
2022-09-01T04:57:41.839Z,25.64
2022-09-01T05:27:30.232Z,22.83
2022-09-01T05:30:05.512Z,17.49
2022-09-01T05:31:27.825Z,15.14
2022-09-01T05:32:49.087Z,16.33
2022-09-01T05:34:10.639Z,14.98
2022-09-01T05:35:34.006Z,17.43
2022-09-01T05:36:56.941Z,17.91
2022-09-01T05:38:18.414Z,17.26
2022-09-01T05:39:39.932Z,17.79
2022-09-01T05:41:02.773Z,14.34
2022-09-01T05:42:24.090Z,17.11
2022-09-01T05:43:46.461Z,28.88
2022-09-01T05:45:08.658Z,41.37
2022-09-01T05:46:30.624Z,33.64
2022-09-01T05:47:51.869Z,28.66
2022-09-01T05:49:13.281Z,23.83
2022-09-01T05:50:35.525Z,37.11
2022-09-01T05:51:56.875Z,20.49
2022-09-01T05:53:20.130Z,17.73
2022-09-01T05:56:08.335Z,17.49
2022-09-01T05:57:36.855Z,11.47
2022-09-01T06:00:17.494Z,17.67
2022-09-01T06:01:38.903Z,9.04
2022-09-01T06:03:00.809Z,11.88
2022-09-01T06:04:23.161Z,16.14
2022-09-01T06:05:44.488Z,11.71
2022-09-01T06:07:07.813Z,20.15
2022-09-01T06:08:28.966Z,13.45
2022-09-01T06:11:18.407Z,11.09
2022-09-01T06:12:40.882Z,12.18
2022-09-01T06:14:02.484Z,12.72
2022-09-01T06:15:25.115Z,11.72
2022-09-01T06:16:47.208Z,12.52
2022-09-01T06:18:11.844Z,8.88
2022-09-01T06:19:37.327Z,12.48
2022-09-01T06:20:58.077Z,18.06
2022-09-01T06:22:19.780Z,11.57
2022-09-01T06:23:42.029Z,13.33
2022-09-01T06:25:03.823Z,8.72
2022-09-01T06:26:28.827Z,11.62
2022-09-01T06:27:50.136Z,19.04
2022-09-01T06:29:11.791Z,12.50
2022-09-01T06:31:47.649Z,15.86
2022-09-01T06:33:10.749Z,25.87
2022-09-01T06:34:34.730Z,34.23
2022-09-01T06:35:55.995Z,37.61
2022-09-01T06:37:17.909Z,30.11
2022-09-01T06:38:39.802Z,23.32
2022-09-01T06:40:01.338Z,18.14
2022-09-01T06:42:52.408Z,40.45
2022-09-01T06:44:15.921Z,59.87
2022-09-01T06:46:55.516Z,33.67
2022-09-01T06:48:17.102Z,20.35
2022-09-01T06:49:38.731Z,13.67
2022-09-01T06:51:19.654Z,21.24
2022-09-01T06:53:40.316Z,20.63
2022-09-01T06:55:07.144Z,19.48
2022-09-01T06:56:26.864Z,11.99
2022-09-01T06:59:14.519Z,18.13
2022-09-01T07:00:37.515Z,16.56
2022-09-01T07:04:38.329Z,15.02
2022-09-01T07:10:23.725Z,20.84
2022-09-01T07:17:25.596Z,7.26
2022-09-01T07:20:26.493Z,23.97
2022-09-01T07:24:41.554Z,12.14
2022-09-01T07:26:06.803Z,13.11
2022-09-01T07:29:10.352Z,23.85
2022-09-01T07:30:33.565Z,16.88
2022-09-01T07:34:50.137Z,11.15
2022-09-01T07:36:29.024Z,11.49
2022-09-01T07:43:29.663Z,7.45
2022-09-01T07:44:50.404Z,17.48
2022-09-01T07:47:52.737Z,18.60
2022-09-01T07:49:02.916Z,13.56
2022-09-01T07:50:39.791Z,7.65
2022-09-01T07:51:50.013Z,6.74
2022-09-01T07:53:15.798Z,6.88
2022-09-01T07:54:37.445Z,17.44
2022-09-01T07:56:01.054Z,8.93
2022-09-01T07:57:22.839Z,5.50
2022-09-01T08:00:11.082Z,9.37
2022-09-01T08:01:33.060Z,9.24
2022-09-01T08:02:57.082Z,7.69
2022-09-01T08:05:45.134Z,5.19
2022-09-01T08:07:26.196Z,8.44
2022-09-01T08:08:57.410Z,9.44
2022-09-01T08:10:31.305Z,8.49
2022-09-01T08:12:02.060Z,11.76
2022-09-01T08:13:22.353Z,28.12
2022-09-01T08:14:43.650Z,15.22
2022-09-01T08:16:08.500Z,12.84
2022-09-01T08:17:34.508Z,13.57
2022-09-01T08:18:53.619Z,12.68
2022-09-01T08:20:15.109Z,13.99
2022-09-01T08:21:43.259Z,8.09
2022-09-01T08:24:22.625Z,11.53
2022-09-01T08:25:44.942Z,16.66
2022-09-01T08:27:06.306Z,16.05
2022-09-01T08:28:27.983Z,6.23
2022-09-01T08:29:50.699Z,5.14
2022-09-01T08:31:14.701Z,4.59
2022-09-01T08:32:36.416Z,9.30
2022-09-01T08:33:57.965Z,8.68
2022-09-01T08:35:20.818Z,5.71
2022-09-01T08:36:43.556Z,5.82
2022-09-01T08:39:21.555Z,6.84
2022-09-01T08:40:47.852Z,12.07
2022-09-01T08:42:26.003Z,11.01
2022-09-01T08:44:19.898Z,7.37
2022-09-01T08:45:49.228Z,7.94
2022-09-01T08:47:12.871Z,10.40
2022-09-01T08:50:08.509Z,8.58
2022-09-01T08:51:58.119Z,17.72
2022-09-01T08:53:28.329Z,10.88
2022-09-01T08:54:59.141Z,11.41
2022-09-01T08:56:20.993Z,11.01
2022-09-01T08:57:44.195Z,11.25
2022-09-01T08:59:06.518Z,6.07
2022-09-01T09:00:33.797Z,3.54
2022-09-01T09:07:03.759Z,10.09
2022-09-01T09:08:35.170Z,18.85
2022-09-01T09:10:08.511Z,12.40
2022-09-01T09:13:14.271Z,9.23
2022-09-01T09:14:55.873Z,8.03
2022-09-01T09:16:30.644Z,5.33
2022-09-01T09:17:59.759Z,5.54
2022-09-01T09:20:38.637Z,4.84
2022-09-01T09:22:04.693Z,4.83
2022-09-01T09:23:31.739Z,4.90
2022-09-01T09:25:13.291Z,10.14
2022-09-01T09:26:42.772Z,6.98
2022-09-01T09:28:01.868Z,9.50
2022-09-01T09:29:22.055Z,2.78
2022-09-01T09:30:45.096Z,7.75
2022-09-01T09:32:22.572Z,20.23
2022-09-01T09:34:52.865Z,4.29
2022-09-01T09:36:22.075Z,7.62
2022-09-01T09:37:46.970Z,2.41
2022-09-01T09:39:14.334Z,3.47
2022-09-01T09:41:00.074Z,4.02
2022-09-01T09:42:09.862Z,2.71
2022-09-01T09:43:37.802Z,4.79
2022-09-01T09:45:01.202Z,3.94
2022-09-01T09:47:51.916Z,3.91
2022-09-01T09:49:36.500Z,3.99
2022-09-01T09:50:44.893Z,1.62
2022-09-01T09:52:11.006Z,5.05
2022-09-01T09:53:32.727Z,2.73
2022-09-01T09:55:00.274Z,4.30
2022-09-01T09:56:22.967Z,3.05
2022-09-01T09:57:44.158Z,2.73
2022-09-01T09:59:54.034Z,1.89
2022-09-01T10:01:05.131Z,3.97
2022-09-01T10:04:13.310Z,3.20
2022-09-01T10:05:38.529Z,4.66
2022-09-01T10:07:02.310Z,4.94
2022-09-01T10:08:30.548Z,3.68
2022-09-01T10:09:52.869Z,3.46
2022-09-01T10:12:52.910Z,7.17
2022-09-01T10:14:35.435Z,3.46
2022-09-01T10:15:49.032Z,3.41
2022-09-01T10:17:12.742Z,7.19
2022-09-01T10:18:40.917Z,4.47
2022-09-01T10:20:06.056Z,1.93
2022-09-01T10:21:39.674Z,2.18
2022-09-01T10:23:01.332Z,4.15
2022-09-01T10:24:34.824Z,3.94
2022-09-01T10:26:14.799Z,5.02
2022-09-01T10:27:37.383Z,6.29
2022-09-01T10:29:12.306Z,6.10
2022-09-01T10:32:38.655Z,5.14
2022-09-01T10:33:43.271Z,4.06
2022-09-01T10:35:06.151Z,6.71
2022-09-01T10:36:28.681Z,3.09
2022-09-01T10:37:50.458Z,4.37
2022-09-01T10:39:13.035Z,5.39
2022-09-01T10:40:41.343Z,11.38
2022-09-01T10:42:01.233Z,12.38
2022-09-01T10:50:01.289Z,2.44
2022-09-01T10:51:35.487Z,5.51
2022-09-01T10:52:55.787Z,8.21
2022-09-01T10:54:52.740Z,12.11
2022-09-01T10:56:29.473Z,3.66
2022-09-01T10:58:08.529Z,5.62
2022-09-01T10:59:38.715Z,6.23
2022-09-01T11:02:25.007Z,14.20
2022-09-01T11:03:52.186Z,6.66
2022-09-01T11:05:15.341Z,9.98
2022-09-01T11:09:46.167Z,4.30
2022-09-01T11:13:23.232Z,3.27
2022-09-01T11:14:53.049Z,4.03
2022-09-01T11:16:53.016Z,6.66
2022-09-01T11:18:00.957Z,5.34
2022-09-01T11:19:34.997Z,8.07
2022-09-01T11:23:27.683Z,9.99
2022-09-01T11:25:11.118Z,3.72
2022-09-01T11:26:35.359Z,1.88
2022-09-01T11:27:57.286Z,4.77
2022-09-01T11:29:51.096Z,4.26
2022-09-01T11:31:22.496Z,3.03
2022-09-01T11:32:47.442Z,4.67
2022-09-01T11:34:20.463Z,4.43
2022-09-01T11:35:43.304Z,1.46
2022-09-01T11:37:05.828Z,2.83
2022-09-01T11:38:29.100Z,2.58
2022-09-01T11:39:59.143Z,3.94
2022-09-01T11:44:48.232Z,4.02
2022-09-01T11:46:13.838Z,5.79
2022-09-01T11:47:43.160Z,7.15
2022-09-01T11:49:10.288Z,7.53
2022-09-01T11:51:50.537Z,6.94
2022-09-01T11:53:14.220Z,8.79
2022-09-01T11:54:42.024Z,13.05
2022-09-01T11:56:12.800Z,14.81
2022-09-01T11:57:36.078Z,10.94
2022-09-01T11:58:57.609Z,8.21
2022-09-01T12:00:28.752Z,9.27
2022-09-01T12:01:54.324Z,4.73
2022-09-01T12:03:25.517Z,4.68
2022-09-01T12:04:47.325Z,11.49
2022-09-01T12:06:11.129Z,3.58
2022-09-01T12:09:01.326Z,9.93
2022-09-01T12:10:36.184Z,19.83
2022-09-01T12:11:58.176Z,5.56
2022-09-01T12:14:48.868Z,10.02
2022-09-01T12:16:17.359Z,9.83
2022-09-01T12:17:22.939Z,12.04
2022-09-01T12:18:46.211Z,10.36
2022-09-01T12:20:29.234Z,6.34
2022-09-01T12:22:04.966Z,7.44
2022-09-01T12:23:28.819Z,7.52
2022-09-01T12:24:51.944Z,6.61
2022-09-01T12:26:17.381Z,11.08
2022-09-01T12:27:38.833Z,5.28
2022-09-01T12:29:00.279Z,6.83
2022-09-01T12:30:24.847Z,5.48
2022-09-01T12:31:47.685Z,6.02
2022-09-01T12:33:23.453Z,6.35
2022-09-01T12:39:59.400Z,8.59
2022-09-01T12:41:29.039Z,23.79
2022-09-01T12:42:51.583Z,10.68
2022-09-01T12:44:32.752Z,10.29
2022-09-01T12:45:54.595Z,8.67
2022-09-01T12:47:37.815Z,6.03
2022-09-01T12:49:20.092Z,5.65
2022-09-01T12:50:43.602Z,5.67
2022-09-01T12:52:20.917Z,6.67
2022-09-01T12:53:46.152Z,5.49
2022-09-01T12:55:11.934Z,5.64
2022-09-01T12:56:34.209Z,3.68
2022-09-01T12:57:57.408Z,5.34
2022-09-01T12:59:31.992Z,4.10
2022-09-01T13:05:56.685Z,7.40
2022-09-01T13:07:18.821Z,7.95
2022-09-01T13:08:40.567Z,3.78
2022-09-01T13:10:02.176Z,5.73
2022-09-01T13:11:23.725Z,4.46
2022-09-01T13:12:45.631Z,5.73
2022-09-01T13:14:07.762Z,9.24
2022-09-01T13:15:30.508Z,7.54
2022-09-01T13:16:52.008Z,7.77
2022-09-01T13:18:14.288Z,3.21
2022-09-01T13:19:37.544Z,5.10
2022-09-01T13:20:58.721Z,5.08
2022-09-01T13:22:20.282Z,4.27
2022-09-01T13:23:41.740Z,7.36
2022-09-01T13:25:03.661Z,7.02
2022-09-01T13:26:25.603Z,11.78
2022-09-01T13:27:47.274Z,4.56
2022-09-01T13:29:08.853Z,2.59
2022-09-01T13:30:30.314Z,5.58
2022-09-01T13:34:27.071Z,3.08
2022-09-01T13:35:51.238Z,2.35
2022-09-01T13:38:34.394Z,3.53
2022-09-01T13:39:55.838Z,2.99
2022-09-01T13:41:17.414Z,7.56
2022-09-01T13:42:38.922Z,6.45
2022-09-01T13:45:22.707Z,3.79
2022-09-01T13:48:18.274Z,7.47
2022-09-01T13:49:43.567Z,7.09
2022-09-01T13:51:15.036Z,5.59
2022-09-01T13:52:21.179Z,5.61
2022-09-01T13:53:42.437Z,6.36
2022-09-01T13:55:08.163Z,5.29
2022-09-01T13:56:29.680Z,2.69
2022-09-01T13:57:55.644Z,3.04
2022-09-01T13:59:16.146Z,1.74
2022-09-01T14:00:40.117Z,2.06
2022-09-01T14:02:01.877Z,3.32
2022-09-01T14:03:23.412Z,2.12
2022-09-01T14:04:44.796Z,6.03
2022-09-01T14:06:06.940Z,5.17
2022-09-01T14:07:28.688Z,4.59
2022-09-01T14:08:50.299Z,2.33
2022-09-01T14:10:15.109Z,3.22
2022-09-01T14:11:37.062Z,4.79
2022-09-01T14:13:07.841Z,3.21
2022-09-01T14:15:11.101Z,2.17
2022-09-01T14:15:54.801Z,2.59
2022-09-01T14:17:16.473Z,1.83
2022-09-01T14:18:38.033Z,2.06
2022-09-01T14:19:59.616Z,5.12
2022-09-01T14:21:20.771Z,1.74
2022-09-01T14:22:42.214Z,5.66
2022-09-01T14:25:27.253Z,11.37
2022-09-01T14:26:49.213Z,3.38
2022-09-01T14:28:10.513Z,3.13
2022-09-01T14:29:32.038Z,4.11
2022-09-01T14:32:14.569Z,6.16
2022-09-01T14:33:36.731Z,9.81
2022-09-01T14:34:58.081Z,6.01
2022-09-01T14:36:22.439Z,2.80
2022-09-01T14:37:43.753Z,5.77
2022-09-01T14:39:05.204Z,7.49
2022-09-01T14:40:27.450Z,5.95
2022-09-01T14:41:48.968Z,3.88
2022-09-01T14:43:10.798Z,3.57
2022-09-01T14:44:32.263Z,10.37
2022-09-01T14:46:04.447Z,4.08
2022-09-01T14:47:25.938Z,6.32
2022-09-01T14:48:47.766Z,5.99
2022-09-01T14:52:10.425Z,13.75
2022-09-01T14:52:53.362Z,7.34
2022-09-01T14:54:14.630Z,14.12
2022-09-01T14:55:36.322Z,10.62
2022-09-01T14:58:21.601Z,12.26
2022-09-01T14:59:42.783Z,5.07
2022-09-01T15:01:23.590Z,4.64
2022-09-01T15:02:27.793Z,4.97
2022-09-01T15:03:48.987Z,5.71
2022-09-01T15:05:11.395Z,8.17
2022-09-01T15:06:33.202Z,7.76
2022-09-01T15:07:54.488Z,7.73
2022-09-01T15:09:18.983Z,8.23
2022-09-01T15:10:39.270Z,24.29
2022-09-01T15:12:00.650Z,35.70
2022-09-01T15:13:22.084Z,23.68
2022-09-01T15:14:44.099Z,8.41
2022-09-01T15:16:06.552Z,7.62
2022-09-01T15:17:28.381Z,3.25
2022-09-01T15:18:50.590Z,6.32
2022-09-01T15:20:12.847Z,2.67
2022-09-01T15:21:35.457Z,4.03
2022-09-01T15:22:57.347Z,4.27
2022-09-01T15:24:21.650Z,4.41
2022-09-01T15:25:43.272Z,8.54
2022-09-01T15:27:05.127Z,7.91
2022-09-01T15:28:26.707Z,2.27
2022-09-01T15:29:53.029Z,6.00
2022-09-01T15:31:16.537Z,8.82
2022-09-01T15:32:37.914Z,6.99
2022-09-01T15:34:00.472Z,9.54
2022-09-01T15:35:22.360Z,4.25
2022-09-01T15:36:44.229Z,3.07
2022-09-01T15:38:06.135Z,14.56
2022-09-01T15:39:33.239Z,16.71
2022-09-01T15:40:58.021Z,8.77
2022-09-01T15:43:35.942Z,13.24
2022-09-01T15:44:57.162Z,4.73
2022-09-01T15:46:19.338Z,6.87
2022-09-01T15:49:07.327Z,10.48
2022-09-01T15:50:29.304Z,10.27
2022-09-01T15:51:50.817Z,4.61
2022-09-01T15:54:30.788Z,5.93
2022-09-01T15:55:52.237Z,8.43
2022-09-01T15:57:13.668Z,6.30
2022-09-01T15:58:57.543Z,5.77
2022-09-01T16:01:17.561Z,6.25
2022-09-01T16:02:39.070Z,5.51
2022-09-01T16:04:01.394Z,9.36
2022-09-01T16:05:23.403Z,6.23
2022-09-01T16:06:45.365Z,6.47
2022-09-01T16:08:09.306Z,6.14
2022-09-01T16:09:30.842Z,6.59
2022-09-01T16:10:52.167Z,6.53
2022-09-01T16:12:15.735Z,9.36
2022-09-01T16:13:40.691Z,7.84
2022-09-01T16:15:01.884Z,8.98
2022-09-01T16:16:28.942Z,10.44
2022-09-01T16:18:20.580Z,7.73
2022-09-01T16:19:53.570Z,7.49
2022-09-01T16:21:18.788Z,7.70
2022-09-01T16:22:52.930Z,5.92
2022-09-01T16:24:14.209Z,5.67
2022-09-01T16:25:35.916Z,4.23
2022-09-01T16:26:57.683Z,6.63
2022-09-01T16:28:27.551Z,7.11
2022-09-01T16:31:29.007Z,5.37
2022-09-01T16:32:51.717Z,8.47
2022-09-01T16:34:14.023Z,5.77
2022-09-01T16:35:41.745Z,7.39
2022-09-01T16:37:36.311Z,5.02
2022-09-01T16:42:19.377Z,8.84
2022-09-01T16:45:28.334Z,6.93
2022-09-01T16:48:39.340Z,5.30
2022-09-01T16:50:31.596Z,5.89
2022-09-01T16:52:11.337Z,7.84
2022-09-01T16:53:36.621Z,6.12
2022-09-01T16:55:05.278Z,7.82
2022-09-01T16:56:31.854Z,12.31
2022-09-01T16:58:02.715Z,6.72
2022-09-01T16:59:44.553Z,8.09
2022-09-01T17:01:18.998Z,6.95
2022-09-01T17:02:56.036Z,9.11
2022-09-01T17:04:30.253Z,7.72
2022-09-01T17:05:57.278Z,9.65
2022-09-01T17:07:29.661Z,12.67
2022-09-01T17:08:52.235Z,9.14
2022-09-01T17:10:21.665Z,9.48
2022-09-01T17:11:50.073Z,11.17
2022-09-01T17:13:17.522Z,11.60
2022-09-01T17:14:45.461Z,15.38
2022-09-01T17:16:11.644Z,10.86
2022-09-01T17:17:45.518Z,20.51
2022-09-01T17:19:08.161Z,28.25
2022-09-01T17:20:32.176Z,16.97
2022-09-01T17:23:28.093Z,10.13
2022-09-01T17:24:44.553Z,10.32
2022-09-01T17:26:09.600Z,16.44
2022-09-01T17:27:39.949Z,9.44
2022-09-01T17:29:22.609Z,12.67
2022-09-01T17:32:22.177Z,12.51
2022-09-01T17:34:03.938Z,12.30
2022-09-01T17:35:46.442Z,12.94
2022-09-01T17:37:23.647Z,14.61
2022-09-01T17:39:08.616Z,12.13
2022-09-01T17:42:02.048Z,9.73
2022-09-01T17:44:54.448Z,16.04
2022-09-01T17:47:58.340Z,36.22
2022-09-01T17:49:35.621Z,25.31
2022-09-01T17:51:13.332Z,22.00
2022-09-01T17:54:44.176Z,17.32
2022-09-01T17:57:48.545Z,28.97
2022-09-01T17:59:16.864Z,17.01
2022-09-01T18:02:45.991Z,21.29
2022-09-01T18:06:05.792Z,19.58
2022-09-01T18:07:47.862Z,21.98
2022-09-01T18:09:09.218Z,23.04
2022-09-01T18:10:54.755Z,22.20
2022-09-01T18:12:18.282Z,23.09
2022-09-01T18:15:12.064Z,23.07
2022-09-01T18:16:38.049Z,23.07
2022-09-01T18:18:18.260Z,28.31
2022-09-01T18:19:43.207Z,24.14
2022-09-01T18:21:09.046Z,25.97
2022-09-01T18:22:33.774Z,35.03
2022-09-01T18:24:07.730Z,25.39
2022-09-01T18:25:48.774Z,29.09
2022-09-01T18:27:10.103Z,24.84
2022-09-01T18:28:31.460Z,22.74
2022-09-01T18:29:53.435Z,25.99
2022-09-01T18:31:21.277Z,28.99
2022-09-01T18:32:49.315Z,23.84
2022-09-01T18:35:46.832Z,26.76
2022-09-01T18:37:19.266Z,26.12
2022-09-01T18:38:56.936Z,30.19
2022-09-01T18:40:33.124Z,25.38
2022-09-01T18:42:17.542Z,28.85
2022-09-01T18:43:44.866Z,25.45
2022-09-01T18:45:24.618Z,24.29
2022-09-01T18:46:55.703Z,30.76
2022-09-01T18:49:59.820Z,32.16
2022-09-01T18:51:28.737Z,18.98
2022-09-01T18:53:03.478Z,19.27
2022-09-01T18:54:31.623Z,20.89
2022-09-01T18:56:00.157Z,19.83
2022-09-01T18:57:24.050Z,18.02
2022-09-01T18:58:49.256Z,23.85
2022-09-01T19:07:42.738Z,19.25
2022-09-01T19:09:17.095Z,17.82
2022-09-01T19:10:51.441Z,21.66
2022-09-01T19:12:36.250Z,21.77
2022-09-01T19:14:28.615Z,29.01
2022-09-01T19:15:55.057Z,29.91
2022-09-01T19:17:27.659Z,23.89
2022-09-01T19:19:04.628Z,24.02
2022-09-01T19:21:02.651Z,26.44
2022-09-01T19:22:39.768Z,26.87
2022-09-01T19:24:06.094Z,26.23
2022-09-01T19:25:28.324Z,26.97
2022-09-01T19:28:41.698Z,27.05
2022-09-01T19:30:06.487Z,28.28
2022-09-01T19:31:42.394Z,31.92
2022-09-01T19:33:04.492Z,26.76
2022-09-01T19:35:42.103Z,26.68
2022-09-01T19:37:03.612Z,23.00
2022-09-01T19:38:25.837Z,26.84
2022-09-01T19:39:52.080Z,20.46
2022-09-01T19:42:45.324Z,28.64
2022-09-01T19:44:45.120Z,28.37
2022-09-01T19:46:22.975Z,26.13
2022-09-01T19:47:54.247Z,28.72
2022-09-01T19:51:05.431Z,29.32
2022-09-01T19:52:39.676Z,26.24
2022-09-01T19:54:27.517Z,24.70
2022-09-01T19:56:10.346Z,28.92
2022-09-01T19:57:43.519Z,29.49
2022-09-01T19:59:17.612Z,29.12
2022-09-01T20:00:50.687Z,31.14
2022-09-01T20:02:12.912Z,24.33
2022-09-01T20:03:37.193Z,39.17
2022-09-01T20:05:02.289Z,42.18
2022-09-01T20:06:34.249Z,47.65
2022-09-01T20:10:49.676Z,64.58
2022-09-01T20:14:07.676Z,82.74
2022-09-01T20:15:45.488Z,81.93
2022-09-01T20:17:09.151Z,73.71
2022-09-01T20:18:40.232Z,68.61
2022-09-01T20:20:25.666Z,58.48
2022-09-01T20:21:47.288Z,55.38
2022-09-01T20:24:39.987Z,43.41
2022-09-01T20:26:08.117Z,43.37
2022-09-01T20:28:03.359Z,45.06
2022-09-01T20:29:48.686Z,42.21
2022-09-01T20:31:34.792Z,39.47
2022-09-01T20:33:11.913Z,33.99
2022-09-01T20:34:39.815Z,27.22
2022-09-01T20:36:24.552Z,26.42
2022-09-01T20:37:49.566Z,22.83
2022-09-01T20:40:37.382Z,20.53
2022-09-01T20:42:05.064Z,22.74
2022-09-01T20:43:28.820Z,23.80
2022-09-01T20:44:58.558Z,19.44
2022-09-01T20:46:21.253Z,15.77
2022-09-01T20:49:01.208Z,15.63
2022-09-01T20:52:06.640Z,19.47
2022-09-01T20:53:35.536Z,16.47
2022-09-01T20:56:40.866Z,20.59
2022-09-01T20:58:28.497Z,19.15
2022-09-01T20:59:54.277Z,15.15
2022-09-01T21:01:32.091Z,18.21
2022-09-01T21:03:17.021Z,18.12
2022-09-01T21:04:42.213Z,22.79
2022-09-01T21:06:22.374Z,25.04
2022-09-01T21:08:04.097Z,25.71
2022-09-01T21:11:03.906Z,30.18
2022-09-01T21:12:40.881Z,28.88
2022-09-01T21:15:40.243Z,24.18
2022-09-01T21:17:14.709Z,24.98
2022-09-01T21:18:46.262Z,24.50
2022-09-01T21:20:12.129Z,27.69
2022-09-01T21:21:40.068Z,26.28
2022-09-01T21:23:01.770Z,26.15
2022-09-01T21:24:24.941Z,26.53
2022-09-01T21:25:46.456Z,29.17
2022-09-01T21:28:23.547Z,17.74
2022-09-01T21:30:07.187Z,25.66
2022-09-01T21:31:30.586Z,22.53
2022-09-01T21:32:53.756Z,23.73
2022-09-01T21:34:17.077Z,18.99
2022-09-01T21:35:38.792Z,24.13
2022-09-01T21:37:00.162Z,22.65
2022-09-01T21:38:21.296Z,21.83
2022-09-01T21:39:42.639Z,23.37
2022-09-01T21:41:04.457Z,19.98
2022-09-01T21:43:40.724Z,16.49
2022-09-01T21:45:02.830Z,21.38
2022-09-01T21:46:24.714Z,22.28
2022-09-01T21:47:47.397Z,20.75
2022-09-01T21:49:09.039Z,19.69
2022-09-01T21:50:30.647Z,23.12
2022-09-01T21:51:51.961Z,20.86
2022-09-01T21:53:13.217Z,22.96
2022-09-01T21:54:34.382Z,19.93
2022-09-01T21:55:56.008Z,17.36
2022-09-01T21:57:18.441Z,18.34
2022-09-01T21:58:39.868Z,18.65
2022-09-01T22:00:10.616Z,17.91
2022-09-01T22:01:34.098Z,20.92
2022-09-01T22:02:55.722Z,18.04
2022-09-01T22:04:17.384Z,18.88
2022-09-01T22:05:40.052Z,17.80
2022-09-01T22:07:03.397Z,14.07
2022-09-01T22:08:25.179Z,19.20
2022-09-01T22:09:46.689Z,17.35
2022-09-01T22:11:08.914Z,21.59
2022-09-01T22:12:30.113Z,17.89